sensor_id;sensor_type;location;lat;lon;timestamp;P1;durP1;ratioP1;P2;durP2;ratioP2
19907;SDS011;10116;53.112;7.356;2023-09-07T00:00:22;1.70;;;1.60;;
19907;SDS011;10116;53.112;7.356;2023-09-07T00:02:47;2.33;;;1.63;;
19907;SDS011;10116;53.112;7.356;2023-09-07T00:05:13;1.50;;;1.50;;
19907;SDS011;10116;53.112;7.356;2023-09-07T00:07:39;1.67;;;1.33;;
19907;SDS011;10116;53.112;7.356;2023-09-07T00:10:05;1.70;;;1.60;;
19907;SDS011;10116;53.112;7.356;2023-09-07T00:12:31;1.80;;;1.70;;
19907;SDS011;10116;53.112;7.356;2023-09-07T00:14:57;1.80;;;1.70;;
19907;SDS011;10116;53.112;7.356;2023-09-07T00:17:23;1.47;;;1.47;;
19907;SDS011;10116;53.112;7.356;2023-09-07T00:19:49;1.77;;;1.77;;
19907;SDS011;10116;53.112;7.356;2023-09-07T00:22:16;1.57;;;1.47;;
19907;SDS011;10116;53.112;7.356;2023-09-07T00:24:43;1.30;;;1.30;;
19907;SDS011;10116;53.112;7.356;2023-09-07T00:27:09;1.90;;;1.80;;
19907;SDS011;10116;53.112;7.356;2023-09-07T00:29:36;1.70;;;1.60;;
19907;SDS011;10116;53.112;7.356;2023-09-07T00:32:02;1.63;;;1.63;;
19907;SDS011;10116;53.112;7.356;2023-09-07T00:34:29;1.83;;;1.73;;
19907;SDS011;10116;53.112;7.356;2023-09-07T00:36:54;1.43;;;1.43;;
19907;SDS011;10116;53.112;7.356;2023-09-07T00:39:20;1.60;;;1.50;;
19907;SDS011;10116;53.112;7.356;2023-09-07T00:41:45;1.37;;;1.37;;
19907;SDS011;10116;53.112;7.356;2023-09-07T00:44:11;2.00;;;1.53;;
19907;SDS011;10116;53.112;7.356;2023-09-07T00:46:37;1.63;;;1.53;;
19907;SDS011;10116;53.112;7.356;2023-09-07T00:49:03;2.17;;;2.07;;
19907;SDS011;10116;53.112;7.356;2023-09-07T00:51:29;1.77;;;1.67;;
19907;SDS011;10116;53.112;7.356;2023-09-07T00:53:55;1.53;;;1.50;;
19907;SDS011;10116;53.112;7.356;2023-09-07T00:56:21;1.40;;;1.40;;
19907;SDS011;10116;53.112;7.356;2023-09-07T00:58:47;1.70;;;1.60;;
19907;SDS011;10116;53.112;7.356;2023-09-07T01:01:14;1.63;;;1.63;;
19907;SDS011;10116;53.112;7.356;2023-09-07T01:03:39;1.67;;;1.57;;
19907;SDS011;10116;53.112;7.356;2023-09-07T01:06:12;1.70;;;1.60;;
19907;SDS011;10116;53.112;7.356;2023-09-07T01:08:44;2.00;;;1.90;;
19907;SDS011;10116;53.112;7.356;2023-09-07T01:11:13;1.73;;;1.73;;
19907;SDS011;10116;53.112;7.356;2023-09-07T01:13:40;1.80;;;1.70;;
19907;SDS011;10116;53.112;7.356;2023-09-07T01:16:07;1.40;;;1.40;;
19907;SDS011;10116;53.112;7.356;2023-09-07T01:18:34;1.73;;;1.63;;
19907;SDS011;10116;53.112;7.356;2023-09-07T01:21:03;1.50;;;1.50;;
19907;SDS011;10116;53.112;7.356;2023-09-07T01:23:33;2.10;;;2.00;;
19907;SDS011;10116;53.112;7.356;2023-09-07T01:26:01;1.87;;;1.87;;
19907;SDS011;10116;53.112;7.356;2023-09-07T01:28:27;1.77;;;1.53;;
19907;SDS011;10116;53.112;7.356;2023-09-07T01:30:53;1.43;;;1.40;;
19907;SDS011;10116;53.112;7.356;2023-09-07T01:33:18;1.77;;;1.67;;
19907;SDS011;10116;53.112;7.356;2023-09-07T01:35:44;2.03;;;1.93;;
19907;SDS011;10116;53.112;7.356;2023-09-07T01:38:11;1.97;;;1.87;;
19907;SDS011;10116;53.112;7.356;2023-09-07T01:40:37;1.53;;;1.53;;
19907;SDS011;10116;53.112;7.356;2023-09-07T01:43:02;1.90;;;1.80;;
19907;SDS011;10116;53.112;7.356;2023-09-07T01:45:28;1.83;;;1.40;;
19907;SDS011;10116;53.112;7.356;2023-09-07T01:47:54;1.63;;;1.53;;
19907;SDS011;10116;53.112;7.356;2023-09-07T01:50:19;1.57;;;1.47;;
19907;SDS011;10116;53.112;7.356;2023-09-07T01:52:46;1.70;;;1.60;;
19907;SDS011;10116;53.112;7.356;2023-09-07T01:55:15;1.60;;;1.60;;
19907;SDS011;10116;53.112;7.356;2023-09-07T01:57:41;1.83;;;1.73;;
19907;SDS011;10116;53.112;7.356;2023-09-07T02:00:07;1.50;;;1.50;;
19907;SDS011;10116;53.112;7.356;2023-09-07T02:02:34;1.53;;;1.53;;
19907;SDS011;10116;53.112;7.356;2023-09-07T02:04:59;1.60;;;1.50;;
19907;SDS011;10116;53.112;7.356;2023-09-07T02:07:25;1.70;;;1.70;;
19907;SDS011;10116;53.112;7.356;2023-09-07T02:09:51;1.60;;;1.60;;
19907;SDS011;10116;53.112;7.356;2023-09-07T02:12:16;1.50;;;1.50;;
19907;SDS011;10116;53.112;7.356;2023-09-07T02:14:42;1.77;;;1.67;;
19907;SDS011;10116;53.112;7.356;2023-09-07T02:17:08;1.60;;;1.50;;
19907;SDS011;10116;53.112;7.356;2023-09-07T02:19:33;1.80;;;1.80;;
19907;SDS011;10116;53.112;7.356;2023-09-07T02:22:00;1.60;;;1.60;;
19907;SDS011;10116;53.112;7.356;2023-09-07T02:24:26;1.70;;;1.60;;
19907;SDS011;10116;53.112;7.356;2023-09-07T02:26:51;1.57;;;1.57;;
19907;SDS011;10116;53.112;7.356;2023-09-07T02:29:17;1.73;;;1.70;;
19907;SDS011;10116;53.112;7.356;2023-09-07T02:31:43;1.60;;;1.60;;
19907;SDS011;10116;53.112;7.356;2023-09-07T02:34:08;2.73;;;1.93;;
19907;SDS011;10116;53.112;7.356;2023-09-07T02:36:34;1.83;;;1.83;;
19907;SDS011;10116;53.112;7.356;2023-09-07T02:39:00;1.77;;;1.67;;
19907;SDS011;10116;53.112;7.356;2023-09-07T02:41:27;1.77;;;1.77;;
19907;SDS011;10116;53.112;7.356;2023-09-07T02:43:52;1.77;;;1.67;;
19907;SDS011;10116;53.112;7.356;2023-09-07T02:46:18;1.60;;;1.50;;
19907;SDS011;10116;53.112;7.356;2023-09-07T02:48:44;2.27;;;2.07;;
19907;SDS011;10116;53.112;7.356;2023-09-07T02:51:09;1.67;;;1.60;;
19907;SDS011;10116;53.112;7.356;2023-09-07T02:53:35;1.90;;;1.80;;
19907;SDS011;10116;53.112;7.356;2023-09-07T02:56:00;1.93;;;1.93;;
19907;SDS011;10116;53.112;7.356;2023-09-07T02:58:29;1.80;;;1.70;;
19907;SDS011;10116;53.112;7.356;2023-09-07T03:00:55;2.20;;;2.10;;
19907;SDS011;10116;53.112;7.356;2023-09-07T03:03:21;1.80;;;1.70;;
19907;SDS011;10116;53.112;7.356;2023-09-07T03:05:46;1.47;;;1.47;;
19907;SDS011;10116;53.112;7.356;2023-09-07T03:08:12;1.60;;;1.50;;
19907;SDS011;10116;53.112;7.356;2023-09-07T03:10:38;2.00;;;1.90;;
19907;SDS011;10116;53.112;7.356;2023-09-07T03:13:07;1.83;;;1.73;;
19907;SDS011;10116;53.112;7.356;2023-09-07T03:15:33;1.80;;;1.70;;
19907;SDS011;10116;53.112;7.356;2023-09-07T03:17:59;2.07;;;1.97;;
19907;SDS011;10116;53.112;7.356;2023-09-07T03:20:26;2.20;;;2.10;;
19907;SDS011;10116;53.112;7.356;2023-09-07T03:22:51;1.97;;;1.97;;
19907;SDS011;10116;53.112;7.356;2023-09-07T03:25:17;1.57;;;1.47;;
19907;SDS011;10116;53.112;7.356;2023-09-07T03:27:43;1.80;;;1.80;;
19907;SDS011;10116;53.112;7.356;2023-09-07T03:30:08;2.60;;;1.83;;
19907;SDS011;10116;53.112;7.356;2023-09-07T03:32:34;2.30;;;2.20;;
19907;SDS011;10116;53.112;7.356;2023-09-07T03:35:01;2.13;;;1.90;;
19907;SDS011;10116;53.112;7.356;2023-09-07T03:37:32;2.80;;;1.57;;
19907;SDS011;10116;53.112;7.356;2023-09-07T03:39:57;1.77;;;1.70;;
19907;SDS011;10116;53.112;7.356;2023-09-07T03:42:23;1.70;;;1.60;;
19907;SDS011;10116;53.112;7.356;2023-09-07T03:44:49;2.00;;;1.90;;
19907;SDS011;10116;53.112;7.356;2023-09-07T03:47:14;1.83;;;1.73;;
19907;SDS011;10116;53.112;7.356;2023-09-07T03:49:40;2.00;;;1.90;;
19907;SDS011;10116;53.112;7.356;2023-09-07T03:52:07;1.80;;;1.80;;
19907;SDS011;10116;53.112;7.356;2023-09-07T03:54:34;1.83;;;1.83;;
19907;SDS011;10116;53.112;7.356;2023-09-07T03:57:00;1.90;;;1.80;;
19907;SDS011;10116;53.112;7.356;2023-09-07T03:59:27;1.70;;;1.60;;
19907;SDS011;10116;53.112;7.356;2023-09-07T04:01:53;2.10;;;2.00;;
19907;SDS011;10116;53.112;7.356;2023-09-07T04:04:19;1.70;;;1.70;;
19907;SDS011;10116;53.112;7.356;2023-09-07T04:06:48;2.23;;;2.13;;
19907;SDS011;10116;53.112;7.356;2023-09-07T04:09:14;1.70;;;1.70;;
19907;SDS011;10116;53.112;7.356;2023-09-07T04:11:40;2.03;;;1.93;;
19907;SDS011;10116;53.112;7.356;2023-09-07T04:14:05;2.00;;;1.97;;
19907;SDS011;10116;53.112;7.356;2023-09-07T04:16:31;1.73;;;1.73;;
19907;SDS011;10116;53.112;7.356;2023-09-07T04:18:57;2.10;;;2.00;;
19907;SDS011;10116;53.112;7.356;2023-09-07T04:21:22;2.17;;;2.07;;
19907;SDS011;10116;53.112;7.356;2023-09-07T04:23:48;1.97;;;1.90;;
19907;SDS011;10116;53.112;7.356;2023-09-07T04:26:14;2.60;;;1.70;;
19907;SDS011;10116;53.112;7.356;2023-09-07T04:28:40;2.33;;;2.00;;
19907;SDS011;10116;53.112;7.356;2023-09-07T04:31:06;1.93;;;1.83;;
19907;SDS011;10116;53.112;7.356;2023-09-07T04:33:32;2.97;;;2.13;;
19907;SDS011;10116;53.112;7.356;2023-09-07T04:36:07;1.80;;;1.80;;
19907;SDS011;10116;53.112;7.356;2023-09-07T04:38:33;2.07;;;1.97;;
19907;SDS011;10116;53.112;7.356;2023-09-07T04:41:33;1.90;;;1.90;;
19907;SDS011;10116;53.112;7.356;2023-09-07T04:43:51;2.27;;;2.17;;
19907;SDS011;10116;53.112;7.356;2023-09-07T04:46:17;2.07;;;1.97;;
19907;SDS011;10116;53.112;7.356;2023-09-07T04:48:47;2.00;;;1.90;;
19907;SDS011;10116;53.112;7.356;2023-09-07T04:51:13;2.13;;;1.93;;
19907;SDS011;10116;53.112;7.356;2023-09-07T04:53:39;2.17;;;2.07;;
19907;SDS011;10116;53.112;7.356;2023-09-07T04:56:05;2.10;;;2.00;;
19907;SDS011;10116;53.112;7.356;2023-09-07T04:58:33;2.50;;;2.40;;
19907;SDS011;10116;53.112;7.356;2023-09-07T05:01:05;1.80;;;1.70;;
19907;SDS011;10116;53.112;7.356;2023-09-07T05:03:36;2.17;;;2.07;;
19907;SDS011;10116;53.112;7.356;2023-09-07T05:06:02;2.00;;;2.00;;
19907;SDS011;10116;53.112;7.356;2023-09-07T05:08:28;2.07;;;1.97;;
19907;SDS011;10116;53.112;7.356;2023-09-07T05:10:55;1.97;;;1.87;;
19907;SDS011;10116;53.112;7.356;2023-09-07T05:13:22;3.00;;;2.00;;
19907;SDS011;10116;53.112;7.356;2023-09-07T05:15:49;2.53;;;2.40;;
19907;SDS011;10116;53.112;7.356;2023-09-07T05:18:16;2.50;;;2.30;;
19907;SDS011;10116;53.112;7.356;2023-09-07T05:20:42;4.10;;;2.43;;
19907;SDS011;10116;53.112;7.356;2023-09-07T05:23:10;2.00;;;1.90;;
19907;SDS011;10116;53.112;7.356;2023-09-07T05:25:46;2.03;;;1.93;;
19907;SDS011;10116;53.112;7.356;2023-09-07T05:28:13;2.30;;;2.20;;
19907;SDS011;10116;53.112;7.356;2023-09-07T05:30:39;1.93;;;1.83;;
19907;SDS011;10116;53.112;7.356;2023-09-07T05:33:06;2.77;;;2.67;;
19907;SDS011;10116;53.112;7.356;2023-09-07T05:35:32;2.27;;;2.17;;
19907;SDS011;10116;53.112;7.356;2023-09-07T05:37:58;2.67;;;2.47;;
19907;SDS011;10116;53.112;7.356;2023-09-07T05:40:23;2.00;;;1.90;;
19907;SDS011;10116;53.112;7.356;2023-09-07T05:42:49;2.77;;;2.37;;
19907;SDS011;10116;53.112;7.356;2023-09-07T05:45:15;2.33;;;2.23;;
19907;SDS011;10116;53.112;7.356;2023-09-07T05:47:41;2.07;;;2.07;;
19907;SDS011;10116;53.112;7.356;2023-09-07T05:50:06;2.17;;;1.90;;
19907;SDS011;10116;53.112;7.356;2023-09-07T05:52:32;2.60;;;2.40;;
19907;SDS011;10116;53.112;7.356;2023-09-07T05:54:58;2.60;;;2.50;;
19907;SDS011;10116;53.112;7.356;2023-09-07T05:57:24;2.60;;;2.50;;
19907;SDS011;10116;53.112;7.356;2023-09-07T05:59:49;2.73;;;2.63;;
19907;SDS011;10116;53.112;7.356;2023-09-07T06:02:15;3.80;;;2.67;;
19907;SDS011;10116;53.112;7.356;2023-09-07T06:04:41;2.60;;;2.50;;
19907;SDS011;10116;53.112;7.356;2023-09-07T06:07:06;2.30;;;2.10;;
19907;SDS011;10116;53.112;7.356;2023-09-07T06:09:32;2.63;;;2.53;;
19907;SDS011;10116;53.112;7.356;2023-09-07T06:11:58;2.57;;;2.37;;
19907;SDS011;10116;53.112;7.356;2023-09-07T06:14:23;2.57;;;2.40;;
19907;SDS011;10116;53.112;7.356;2023-09-07T06:16:49;2.67;;;2.57;;
19907;SDS011;10116;53.112;7.356;2023-09-07T06:19:14;2.73;;;2.60;;
19907;SDS011;10116;53.112;7.356;2023-09-07T06:21:40;2.70;;;2.50;;
19907;SDS011;10116;53.112;7.356;2023-09-07T06:24:06;2.63;;;2.53;;
19907;SDS011;10116;53.112;7.356;2023-09-07T06:26:48;3.07;;;2.63;;
19907;SDS011;10116;53.112;7.356;2023-09-07T06:29:14;2.73;;;2.63;;
19907;SDS011;10116;53.112;7.356;2023-09-07T06:31:40;2.70;;;2.60;;
19907;SDS011;10116;53.112;7.356;2023-09-07T06:34:06;2.70;;;2.60;;
19907;SDS011;10116;53.112;7.356;2023-09-07T06:36:31;2.60;;;2.50;;
19907;SDS011;10116;53.112;7.356;2023-09-07T06:38:57;2.53;;;2.43;;
19907;SDS011;10116;53.112;7.356;2023-09-07T06:41:23;3.03;;;2.80;;
19907;SDS011;10116;53.112;7.356;2023-09-07T06:43:49;3.27;;;2.97;;
19907;SDS011;10116;53.112;7.356;2023-09-07T06:46:15;3.17;;;2.90;;
19907;SDS011;10116;53.112;7.356;2023-09-07T06:48:40;3.13;;;2.73;;
19907;SDS011;10116;53.112;7.356;2023-09-07T06:51:06;2.63;;;2.53;;
19907;SDS011;10116;53.112;7.356;2023-09-07T06:53:33;2.70;;;2.50;;
19907;SDS011;10116;53.112;7.356;2023-09-07T06:55:59;2.63;;;2.43;;
19907;SDS011;10116;53.112;7.356;2023-09-07T06:58:25;3.10;;;2.90;;
19907;SDS011;10116;53.112;7.356;2023-09-07T07:00:51;2.90;;;2.80;;
19907;SDS011;10116;53.112;7.356;2023-09-07T07:03:17;3.00;;;2.90;;
19907;SDS011;10116;53.112;7.356;2023-09-07T07:05:43;3.17;;;3.03;;
19907;SDS011;10116;53.112;7.356;2023-09-07T07:08:09;3.73;;;3.43;;
19907;SDS011;10116;53.112;7.356;2023-09-07T07:10:35;3.30;;;2.97;;
19907;SDS011;10116;53.112;7.356;2023-09-07T07:13:00;3.27;;;3.07;;
19907;SDS011;10116;53.112;7.356;2023-09-07T07:15:26;3.40;;;3.20;;
19907;SDS011;10116;53.112;7.356;2023-09-07T07:17:52;3.17;;;2.97;;
19907;SDS011;10116;53.112;7.356;2023-09-07T07:20:17;3.27;;;3.10;;
19907;SDS011;10116;53.112;7.356;2023-09-07T07:22:43;3.33;;;3.10;;
19907;SDS011;10116;53.112;7.356;2023-09-07T07:25:08;4.20;;;3.47;;
19907;SDS011;10116;53.112;7.356;2023-09-07T07:27:35;3.27;;;2.97;;
19907;SDS011;10116;53.112;7.356;2023-09-07T07:30:01;2.97;;;2.77;;
19907;SDS011;10116;53.112;7.356;2023-09-07T07:32:27;3.63;;;3.33;;
19907;SDS011;10116;53.112;7.356;2023-09-07T07:34:53;6.63;;;3.90;;
19907;SDS011;10116;53.112;7.356;2023-09-07T07:37:19;3.50;;;3.30;;
19907;SDS011;10116;53.112;7.356;2023-09-07T07:39:44;4.20;;;3.37;;
19907;SDS011;10116;53.112;7.356;2023-09-07T07:42:10;3.77;;;3.57;;
19907;SDS011;10116;53.112;7.356;2023-09-07T07:44:36;4.70;;;3.80;;
19907;SDS011;10116;53.112;7.356;2023-09-07T07:47:01;3.20;;;3.07;;
19907;SDS011;10116;53.112;7.356;2023-09-07T07:49:27;3.13;;;3.03;;
19907;SDS011;10116;53.112;7.356;2023-09-07T07:51:53;3.50;;;3.30;;
19907;SDS011;10116;53.112;7.356;2023-09-07T07:54:20;3.23;;;3.03;;
19907;SDS011;10116;53.112;7.356;2023-09-07T07:56:48;3.83;;;3.60;;
19907;SDS011;10116;53.112;7.356;2023-09-07T07:59:13;3.83;;;3.40;;
19907;SDS011;10116;53.112;7.356;2023-09-07T08:01:39;4.03;;;3.70;;
19907;SDS011;10116;53.112;7.356;2023-09-07T08:04:05;3.43;;;3.10;;
19907;SDS011;10116;53.112;7.356;2023-09-07T08:06:31;6.03;;;3.97;;
19907;SDS011;10116;53.112;7.356;2023-09-07T08:08:56;4.10;;;3.87;;
19907;SDS011;10116;53.112;7.356;2023-09-07T08:11:22;4.47;;;4.17;;
19907;SDS011;10116;53.112;7.356;2023-09-07T08:13:49;4.10;;;3.80;;
19907;SDS011;10116;53.112;7.356;2023-09-07T08:16:15;4.70;;;3.97;;
19907;SDS011;10116;53.112;7.356;2023-09-07T08:18:40;4.50;;;3.97;;
19907;SDS011;10116;53.112;7.356;2023-09-07T08:21:06;3.67;;;3.47;;
19907;SDS011;10116;53.112;7.356;2023-09-07T08:23:32;4.00;;;3.70;;
19907;SDS011;10116;53.112;7.356;2023-09-07T08:25:57;4.27;;;3.97;;
19907;SDS011;10116;53.112;7.356;2023-09-07T08:28:23;4.43;;;4.03;;
19907;SDS011;10116;53.112;7.356;2023-09-07T08:30:50;3.87;;;3.67;;
19907;SDS011;10116;53.112;7.356;2023-09-07T08:33:22;4.03;;;3.73;;
19907;SDS011;10116;53.112;7.356;2023-09-07T08:35:52;4.37;;;4.07;;
19907;SDS011;10116;53.112;7.356;2023-09-07T08:38:18;3.93;;;3.73;;
19907;SDS011;10116;53.112;7.356;2023-09-07T08:40:47;4.07;;;3.73;;
19907;SDS011;10116;53.112;7.356;2023-09-07T08:43:13;3.93;;;3.73;;
19907;SDS011;10116;53.112;7.356;2023-09-07T08:45:46;4.10;;;3.80;;
19907;SDS011;10116;53.112;7.356;2023-09-07T08:48:17;4.37;;;3.97;;
19907;SDS011;10116;53.112;7.356;2023-09-07T08:50:45;4.10;;;3.80;;
19907;SDS011;10116;53.112;7.356;2023-09-07T08:53:18;4.07;;;3.87;;
19907;SDS011;10116;53.112;7.356;2023-09-07T08:55:45;3.97;;;3.77;;
19907;SDS011;10116;53.112;7.356;2023-09-07T08:58:11;3.77;;;3.43;;
19907;SDS011;10116;53.112;7.356;2023-09-07T09:00:37;4.67;;;4.23;;
19907;SDS011;10116;53.112;7.356;2023-09-07T09:03:03;4.07;;;3.77;;
19907;SDS011;10116;53.112;7.356;2023-09-07T09:05:30;4.23;;;3.93;;
19907;SDS011;10116;53.112;7.356;2023-09-07T09:08:03;4.33;;;3.93;;
19907;SDS011;10116;53.112;7.356;2023-09-07T09:10:29;3.80;;;3.50;;
19907;SDS011;10116;53.112;7.356;2023-09-07T09:12:55;3.60;;;3.30;;
19907;SDS011;10116;53.112;7.356;2023-09-07T09:15:22;4.67;;;4.00;;
19907;SDS011;10116;53.112;7.356;2023-09-07T09:17:48;4.27;;;3.87;;
19907;SDS011;10116;53.112;7.356;2023-09-07T09:20:20;4.07;;;3.87;;
19907;SDS011;10116;53.112;7.356;2023-09-07T09:22:50;4.10;;;3.80;;
19907;SDS011;10116;53.112;7.356;2023-09-07T09:25:17;3.80;;;3.50;;
19907;SDS011;10116;53.112;7.356;2023-09-07T09:27:43;3.50;;;3.30;;
19907;SDS011;10116;53.112;7.356;2023-09-07T09:30:09;4.03;;;3.67;;
19907;SDS011;10116;53.112;7.356;2023-09-07T09:32:35;4.00;;;3.70;;
19907;SDS011;10116;53.112;7.356;2023-09-07T09:35:01;4.30;;;3.93;;
19907;SDS011;10116;53.112;7.356;2023-09-07T09:37:28;4.13;;;3.90;;
19907;SDS011;10116;53.112;7.356;2023-09-07T09:39:53;4.00;;;3.70;;
19907;SDS011;10116;53.112;7.356;2023-09-07T09:42:21;3.93;;;3.63;;
19907;SDS011;10116;53.112;7.356;2023-09-07T09:44:49;3.53;;;3.33;;
19907;SDS011;10116;53.112;7.356;2023-09-07T09:47:17;3.70;;;3.50;;
19907;SDS011;10116;53.112;7.356;2023-09-07T09:49:45;3.47;;;3.27;;
19907;SDS011;10116;53.112;7.356;2023-09-07T09:52:11;4.30;;;4.00;;
19907;SDS011;10116;53.112;7.356;2023-09-07T09:54:38;6.50;;;3.57;;
19907;SDS011;10116;53.112;7.356;2023-09-07T09:57:05;4.10;;;3.90;;
19907;SDS011;10116;53.112;7.356;2023-09-07T09:59:31;4.23;;;3.83;;
19907;SDS011;10116;53.112;7.356;2023-09-07T10:01:56;4.30;;;3.63;;
19907;SDS011;10116;53.112;7.356;2023-09-07T10:04:23;4.20;;;3.90;;
19907;SDS011;10116;53.112;7.356;2023-09-07T10:06:50;4.27;;;3.97;;
19907;SDS011;10116;53.112;7.356;2023-09-07T10:09:20;4.03;;;3.77;;
19907;SDS011;10116;53.112;7.356;2023-09-07T10:11:50;4.10;;;3.90;;
19907;SDS011;10116;53.112;7.356;2023-09-07T10:14:18;4.00;;;3.70;;
19907;SDS011;10116;53.112;7.356;2023-09-07T10:16:48;4.20;;;3.90;;
19907;SDS011;10116;53.112;7.356;2023-09-07T10:19:17;3.73;;;3.53;;
19907;SDS011;10116;53.112;7.356;2023-09-07T10:21:43;3.77;;;3.50;;
19907;SDS011;10116;53.112;7.356;2023-09-07T10:24:09;3.93;;;3.70;;
19907;SDS011;10116;53.112;7.356;2023-09-07T10:26:35;4.60;;;4.20;;
19907;SDS011;10116;53.112;7.356;2023-09-07T10:29:01;3.77;;;3.50;;
19907;SDS011;10116;53.112;7.356;2023-09-07T10:31:29;4.87;;;4.27;;
19907;SDS011;10116;53.112;7.356;2023-09-07T10:34:07;3.87;;;3.67;;
19907;SDS011;10116;53.112;7.356;2023-09-07T10:36:37;4.23;;;3.83;;
19907;SDS011;10116;53.112;7.356;2023-09-07T10:39:03;4.63;;;4.30;;
19907;SDS011;10116;53.112;7.356;2023-09-07T10:41:41;3.77;;;3.57;;
19907;SDS011;10116;53.112;7.356;2023-09-07T10:44:08;4.00;;;3.80;;
19907;SDS011;10116;53.112;7.356;2023-09-07T10:46:35;4.37;;;4.07;;
19907;SDS011;10116;53.112;7.356;2023-09-07T10:49:02;4.63;;;4.33;;
19907;SDS011;10116;53.112;7.356;2023-09-07T10:51:28;3.80;;;3.60;;
19907;SDS011;10116;53.112;7.356;2023-09-07T10:53:55;4.53;;;4.23;;
19907;SDS011;10116;53.112;7.356;2023-09-07T10:56:23;5.60;;;4.17;;
19907;SDS011;10116;53.112;7.356;2023-09-07T10:58:53;4.83;;;4.53;;
19907;SDS011;10116;53.112;7.356;2023-09-07T11:01:19;4.90;;;4.50;;
19907;SDS011;10116;53.112;7.356;2023-09-07T11:03:45;6.90;;;4.00;;
19907;SDS011;10116;53.112;7.356;2023-09-07T11:08:39;4.47;;;4.17;;
19907;SDS011;10116;53.112;7.356;2023-09-07T11:11:05;6.03;;;4.33;;
19907;SDS011;10116;53.112;7.356;2023-09-07T11:13:31;4.00;;;3.33;;
19907;SDS011;10116;53.112;7.356;2023-09-07T11:15:57;4.40;;;4.10;;
19907;SDS011;10116;53.112;7.356;2023-09-07T11:18:24;5.00;;;4.70;;
19907;SDS011;10116;53.112;7.356;2023-09-07T11:20:51;4.00;;;3.80;;
19907;SDS011;10116;53.112;7.356;2023-09-07T11:23:17;4.63;;;4.23;;
19907;SDS011;10116;53.112;7.356;2023-09-07T11:25:44;4.20;;;3.90;;
19907;SDS011;10116;53.112;7.356;2023-09-07T11:28:12;4.47;;;4.23;;
19907;SDS011;10116;53.112;7.356;2023-09-07T11:30:53;4.90;;;4.50;;
19907;SDS011;10116;53.112;7.356;2023-09-07T11:33:20;4.30;;;3.70;;
19907;SDS011;10116;53.112;7.356;2023-09-07T11:35:49;4.90;;;4.50;;
19907;SDS011;10116;53.112;7.356;2023-09-07T11:38:16;4.60;;;4.20;;
19907;SDS011;10116;53.112;7.356;2023-09-07T11:40:42;4.10;;;3.90;;
19907;SDS011;10116;53.112;7.356;2023-09-07T11:43:13;4.30;;;4.00;;
19907;SDS011;10116;53.112;7.356;2023-09-07T11:45:40;4.10;;;3.90;;
19907;SDS011;10116;53.112;7.356;2023-09-07T11:48:06;4.60;;;4.30;;
19907;SDS011;10116;53.112;7.356;2023-09-07T11:50:34;4.60;;;4.30;;
19907;SDS011;10116;53.112;7.356;2023-09-07T11:53:00;4.20;;;4.00;;
19907;SDS011;10116;53.112;7.356;2023-09-07T11:55:26;4.40;;;4.10;;
19907;SDS011;10116;53.112;7.356;2023-09-07T11:57:52;4.37;;;4.07;;
19907;SDS011;10116;53.112;7.356;2023-09-07T12:00:18;4.40;;;4.07;;
19907;SDS011;10116;53.112;7.356;2023-09-07T12:02:44;4.10;;;3.80;;
19907;SDS011;10116;53.112;7.356;2023-09-07T12:05:10;4.20;;;4.00;;
19907;SDS011;10116;53.112;7.356;2023-09-07T12:07:39;4.07;;;3.83;;
19907;SDS011;10116;53.112;7.356;2023-09-07T12:10:05;4.00;;;3.80;;
19907;SDS011;10116;53.112;7.356;2023-09-07T12:12:35;4.17;;;3.83;;
19907;SDS011;10116;53.112;7.356;2023-09-07T12:15:04;4.30;;;4.00;;
19907;SDS011;10116;53.112;7.356;2023-09-07T12:17:31;4.20;;;3.90;;
19907;SDS011;10116;53.112;7.356;2023-09-07T12:19:57;3.97;;;3.77;;
19907;SDS011;10116;53.112;7.356;2023-09-07T12:22:22;8.40;;;3.57;;
19907;SDS011;10116;53.112;7.356;2023-09-07T12:24:48;4.57;;;4.27;;
19907;SDS011;10116;53.112;7.356;2023-09-07T12:27:14;4.87;;;4.30;;
19907;SDS011;10116;53.112;7.356;2023-09-07T12:29:40;5.80;;;3.90;;
19907;SDS011;10116;53.112;7.356;2023-09-07T12:32:06;4.60;;;4.30;;
19907;SDS011;10116;53.112;7.356;2023-09-07T12:34:31;4.33;;;4.03;;
19907;SDS011;10116;53.112;7.356;2023-09-07T12:36:57;5.00;;;3.73;;
19907;SDS011;10116;53.112;7.356;2023-09-07T12:39:22;4.30;;;4.00;;
19907;SDS011;10116;53.112;7.356;2023-09-07T12:41:48;4.60;;;4.30;;
19907;SDS011;10116;53.112;7.356;2023-09-07T12:44:14;4.83;;;3.70;;
19907;SDS011;10116;53.112;7.356;2023-09-07T12:46:39;4.30;;;4.00;;
19907;SDS011;10116;53.112;7.356;2023-09-07T12:49:05;4.83;;;4.43;;
19907;SDS011;10116;53.112;7.356;2023-09-07T12:51:31;4.13;;;3.90;;
19907;SDS011;10116;53.112;7.356;2023-09-07T12:53:57;4.07;;;3.77;;
19907;SDS011;10116;53.112;7.356;2023-09-07T12:56:22;3.90;;;3.70;;
19907;SDS011;10116;53.112;7.356;2023-09-07T12:58:48;4.30;;;4.00;;
19907;SDS011;10116;53.112;7.356;2023-09-07T13:01:14;4.73;;;4.07;;
19907;SDS011;10116;53.112;7.356;2023-09-07T13:03:41;4.43;;;4.13;;
19907;SDS011;10116;53.112;7.356;2023-09-07T13:06:07;4.47;;;4.17;;
19907;SDS011;10116;53.112;7.356;2023-09-07T13:08:33;6.17;;;4.57;;
19907;SDS011;10116;53.112;7.356;2023-09-07T13:10:59;4.37;;;4.07;;
19907;SDS011;10116;53.112;7.356;2023-09-07T13:13:25;4.57;;;4.27;;
19907;SDS011;10116;53.112;7.356;2023-09-07T13:15:54;4.70;;;4.30;;
19907;SDS011;10116;53.112;7.356;2023-09-07T13:18:20;4.07;;;3.87;;
19907;SDS011;10116;53.112;7.356;2023-09-07T13:20:46;4.40;;;4.20;;
19907;SDS011;10116;53.112;7.356;2023-09-07T13:23:14;3.80;;;3.60;;
19907;SDS011;10116;53.112;7.356;2023-09-07T13:25:40;3.90;;;3.70;;
19907;SDS011;10116;53.112;7.356;2023-09-07T13:28:06;3.80;;;3.60;;
19907;SDS011;10116;53.112;7.356;2023-09-07T13:30:32;4.53;;;4.13;;
19907;SDS011;10116;53.112;7.356;2023-09-07T13:32:58;4.30;;;3.90;;
19907;SDS011;10116;53.112;7.356;2023-09-07T13:35:25;4.60;;;4.20;;
19907;SDS011;10116;53.112;7.356;2023-09-07T13:37:50;4.40;;;4.20;;
19907;SDS011;10116;53.112;7.356;2023-09-07T13:40:16;4.10;;;3.80;;
19907;SDS011;10116;53.112;7.356;2023-09-07T13:42:44;3.73;;;3.53;;
19907;SDS011;10116;53.112;7.356;2023-09-07T13:45:10;3.80;;;3.60;;
19907;SDS011;10116;53.112;7.356;2023-09-07T13:47:36;4.43;;;4.13;;
19907;SDS011;10116;53.112;7.356;2023-09-07T13:50:02;3.67;;;3.47;;
19907;SDS011;10116;53.112;7.356;2023-09-07T13:52:28;4.10;;;3.70;;
19907;SDS011;10116;53.112;7.356;2023-09-07T13:54:54;4.20;;;3.80;;
19907;SDS011;10116;53.112;7.356;2023-09-07T13:57:19;3.60;;;3.40;;
19907;SDS011;10116;53.112;7.356;2023-09-07T13:59:45;4.13;;;3.60;;
19907;SDS011;10116;53.112;7.356;2023-09-07T14:02:10;4.20;;;3.90;;
19907;SDS011;10116;53.112;7.356;2023-09-07T14:04:36;3.60;;;3.40;;
19907;SDS011;10116;53.112;7.356;2023-09-07T14:07:02;4.30;;;4.00;;
19907;SDS011;10116;53.112;7.356;2023-09-07T14:09:27;4.63;;;4.33;;
19907;SDS011;10116;53.112;7.356;2023-09-07T14:11:53;4.73;;;4.33;;
19907;SDS011;10116;53.112;7.356;2023-09-07T14:14:19;4.27;;;3.70;;
19907;SDS011;10116;53.112;7.356;2023-09-07T14:16:45;4.10;;;3.80;;
19907;SDS011;10116;53.112;7.356;2023-09-07T14:19:11;3.70;;;3.50;;
19907;SDS011;10116;53.112;7.356;2023-09-07T14:21:37;3.57;;;3.37;;
19907;SDS011;10116;53.112;7.356;2023-09-07T14:24:03;5.07;;;3.57;;
19907;SDS011;10116;53.112;7.356;2023-09-07T14:26:29;4.80;;;3.30;;
19907;SDS011;10116;53.112;7.356;2023-09-07T14:28:55;4.00;;;3.70;;
19907;SDS011;10116;53.112;7.356;2023-09-07T14:31:20;3.60;;;3.43;;
19907;SDS011;10116;53.112;7.356;2023-09-07T14:33:46;4.17;;;3.87;;
19907;SDS011;10116;53.112;7.356;2023-09-07T14:36:12;3.80;;;3.60;;
19907;SDS011;10116;53.112;7.356;2023-09-07T14:38:37;5.30;;;3.77;;
19907;SDS011;10116;53.112;7.356;2023-09-07T14:41:08;4.73;;;4.33;;
19907;SDS011;10116;53.112;7.356;2023-09-07T14:43:43;3.73;;;3.53;;
19907;SDS011;10116;53.112;7.356;2023-09-07T14:46:10;3.90;;;3.70;;